Terminal Aerodrome Forecast
Issued by NWS Tampa Bay Area, FL

Home | Current Version | Previous Version | Text Only | Print | Product List | Glossary On
Versions: 1 2 3 4 5 6 7 8 9 10 11 12 13 14 15 16 17
000
FTUS42 KTBW 191149 CCA
TAFSRQ
TAF COR
KSRQ 191149Z 1912/2012 13004KT P6SM FEW010 SCT250
      TEMPO 1912/1913 5SM BR
     FM191400 16009KT P6SM SCT025 SCT250
     FM191600 20013G22KT P6SM FEW040 SCT250
     FM192000 23013G22KT P6SM FEW050 SCT250
     FM200100 21006KT P6SM SCT050 SCT120 BKN250
     FM200800 20008KT 6SM BR SCT020 BKN250=

USA.gov is the U.S. government's official web portal to all federal, state and local government web resources and services.